| time (UTC) | temp C | wind direction | speed KPH | gust KPH | rain 1hr cm | rain 24hr cm | rain mn cm | humidity % | barometer mb |
| 20260508114528 | 5 | 19 | 11.3 | 17.7 | 0.00 | 0.00 | 0.00 | 49 | 1019.9 |
| 20260508113028 | 5 | 5 | 12.9 | 16.1 | 0.00 | 0.00 | 0.00 | 48 | 1019.9 |
| 20260508111528 | 6 | 9 | 4.8 | 11.3 | 0.00 | 0.00 | 0.00 | 45 | 1019.9 |
| 20260508110033 | 7 | 5 | 0.0 | 12.9 | 0.00 | 0.00 | 0.00 | 43 | 1020.0 |
| 20260508104531 | 6 | 304 | 4.8 | 11.3 | 0.00 | 0.00 | 0.00 | 46 | 1020.1 |
| 20260508103041 | 6 | 269 | 3.2 | 8.0 | 0.00 | 0.00 | 0.00 | 46 | 1020.0 |
| 20260508101531 | 7 | 297 | 4.8 | 9.7 | 0.00 | 0.00 | 0.00 | 45 | 1019.8 |
| 20260508100032 | 5 | 298 | 4.8 | 17.7 | 0.00 | 0.00 | 0.00 | 49 | 1019.8 |
| 20260508094528 | 5 | 17 | 11.3 | 17.7 | 0.00 | 0.00 | 0.00 | 50 | 1019.6 |
| 20260508093036 | 6 | 14 | 14.5 | 19.3 | 0.00 | 0.00 | 0.00 | 48 | 1019.6 |
| 20260508091530 | 6 | 13 | 12.9 | 19.3 | 0.00 | 0.00 | 0.00 | 49 | 1019.6 |
| 20260508090037 | 6 | 12 | 14.5 | 19.3 | 0.00 | 0.00 | 0.00 | 47 | 1019.6 |
| 20260508084528 | 6 | 12 | 17.7 | 22.5 | 0.00 | 0.00 | 0.00 | 47 | 1019.8 |
| 20260508083030 | 6 | 13 | 14.5 | 20.9 | 0.00 | 0.00 | 0.00 | 48 | 1019.8 |
| 20260508081528 | 6 | 16 | 17.7 | 22.5 | 0.00 | 0.00 | 0.00 | 46 | 1020.0 |
| 20260508080029 | 6 | 5 | 17.7 | 20.9 | 0.00 | 0.00 | 0.00 | 46 | 1019.9 |
| 20260508074534 | 6 | 14 | 17.7 | 20.9 | 0.00 | 0.00 | 0.00 | 46 | 1020.0 |
| 20260508073030 | 7 | 360 | 14.5 | 19.3 | 0.00 | 0.00 | 0.00 | 45 | 1020.0 |
| 20260508071533 | 6 | 11 | 16.1 | 19.3 | 0.00 | 0.00 | 0.00 | 46 | 1020.1 |
| 20260508070030 | 6 | 16 | 16.1 | 19.3 | 0.00 | 0.00 | 0.00 | 47 | 1020.3 |
| 20260508064535 | 6 | 16 | 11.3 | 16.1 | 0.00 | 0.00 | 0.00 | 45 | 1020.3 |
| 20260508063030 | 6 | 355 | 6.4 | 19.3 | 0.00 | 0.00 | 0.00 | 46 | 1020.4 |
| 20260508061528 | 6 | 11 | 14.5 | 19.3 | 0.00 | 0.00 | 0.00 | 47 | 1020.3 |
| 20260508060033 | 7 | 11 | 6.4 | 12.9 | 0.00 | 0.00 | 0.00 | 44 | 1020.3 |
| 20260508054605 | 6 | 11 | 14.5 | 19.3 | 0.00 | 0.00 | 0.00 | 46 | 1020.3 |
| 20260508053043 | 7 | 15 | 16.1 | 17.7 | 0.00 | 0.00 | 0.00 | 44 | 1020.1 |
| 20260508051528 | 7 | 5 | 14.5 | 19.3 | 0.00 | 0.00 | 0.00 | 43 | 1020.3 |
| 20260508050030 | 7 | 15 | 16.1 | 19.3 | 0.00 | 0.00 | 0.00 | 42 | 1020.3 |
| 20260508044530 | 8 | 9 | 14.5 | 19.3 | 0.00 | 0.00 | 0.00 | 40 | 1020.4 |
| 20260508043035 | 8 | 5 | 16.1 | 22.5 | 0.00 | 0.00 | 0.00 | 39 | 1020.4 |
| 20260508041529 | 9 | 5 | 17.7 | 22.5 | 0.00 | 0.00 | 0.00 | 38 | 1020.3 |
| 20260508040033 | 10 | 5 | 16.1 | 20.9 | 0.00 | 0.00 | 0.00 | 36 | 1020.2 |
| 20260508034536 | 9 | 5 | 16.1 | 19.3 | 0.00 | 0.00 | 0.00 | 36 | 1020.2 |
| 20260508033033 | 11 | 5 | 14.5 | 19.3 | 0.00 | 0.00 | 0.00 | 32 | 1020.1 |
| 20260508031533 | 12 | 355 | 14.5 | 20.9 | 0.00 | 0.00 | 0.00 | 30 | 1019.9 |
| 20260508030030 | 12 | 341 | 12.9 | 22.5 | 0.00 | 0.00 | 0.00 | 30 | 1019.8 |
| 20260508024527 | 12 | 355 | 11.3 | 24.1 | 0.00 | 0.00 | 0.00 | 30 | 1019.6 |
| 20260508023027 | 13 | 346 | 11.3 | 19.3 | 0.00 | 0.00 | 0.00 | 30 | 1019.5 |
| 20260508021528 | 13 | 340 | 14.5 | 20.9 | 0.00 | 0.00 | 0.00 | 29 | 1019.4 |
| 20260508020031 | 13 | 327 | 12.9 | 24.1 | 0.00 | 0.00 | 0.00 | 28 | 1019.1 |
| 20260508014535 | 14 | 342 | 16.1 | 33.8 | 0.00 | 0.00 | 0.00 | 27 | 1019.0 |
| 20260508013028 | 15 | 318 | 17.7 | 32.2 | 0.00 | 0.00 | 0.00 | 26 | 1019.0 |
| 20260508011527 | 15 | 340 | 20.9 | 33.8 | 0.00 | 0.00 | 0.00 | 25 | 1018.9 |
| 20260508010044 | 16 | 299 | 27.4 | 41.8 | 0.00 | 0.00 | 0.00 | 25 | 1018.9 |
| 20260508004532 | 16 | 280 | 22.5 | 43.5 | 0.00 | 0.00 | 0.00 | 25 | 1018.7 |
| 20260508003027 | 16 | 298 | 32.2 | 45.1 | 0.00 | 0.00 | 0.00 | 24 | 1018.7 |
| 20260508001526 | 16 | 310 | 25.7 | 41.8 | 0.00 | 0.00 | 0.00 | 24 | 1018.6 |
| 20260508000027 | 17 | 286 | 27.4 | 40.2 | 0.00 | 0.00 | 0.00 | 23 | 1018.6 |
| 20260507234528 | 17 | 273 | 24.1 | 41.8 | 0.00 | 0.00 | 0.00 | 22 | 1018.7 |
| 20260507233030 | 17 | 267 | 24.1 | 43.5 | 0.00 | 0.00 | 0.00 | 22 | 1018.5 |
| 20260507231528 | 17 | 282 | 20.9 | 43.5 | 0.00 | 0.00 | 0.00 | 23 | 1018.6 |
| 20260507230038 | 17 | 303 | 24.1 | 45.1 | 0.00 | 0.00 | 0.00 | 21 | 1018.7 |
| 20260507224530 | 17 | 286 | 22.5 | 43.5 | 0.00 | 0.00 | 0.00 | 22 | 1018.6 |
| 20260507223028 | 17 | 236 | 19.3 | 38.6 | 0.00 | 0.00 | 0.00 | 23 | 1018.5 |
| 20260507221529 | 17 | 267 | 24.1 | 41.8 | 0.00 | 0.00 | 0.00 | 23 | 1018.8 |
| 20260507220029 | 17 | 217 | 24.1 | 45.1 | 0.00 | 0.00 | 0.00 | 22 | 1019.0 |
| 20260507214530 | 17 | 264 | 24.1 | 41.8 | 0.00 | 0.00 | 0.00 | 22 | 1019.3 |
| 20260507213030 | 17 | 242 | 22.5 | 37.0 | 0.00 | 0.00 | 0.00 | 23 | 1019.4 |
| 20260507211537 | 16 | 244 | 20.9 | 35.4 | 0.00 | 0.00 | 0.00 | 23 | 1019.6 |
| 20260507210027 | 16 | 296 | 20.9 | 40.2 | 0.00 | 0.00 | 0.00 | 23 | 1019.9 |
| 20260507204527 | 16 | 237 | 19.3 | 37.0 | 0.00 | 0.00 | 0.00 | 23 | 1020.1 |
| 20260507203035 | 16 | 235 | 16.1 | 29.0 | 0.00 | 0.00 | 0.00 | 23 | 1020.4 |
| 20260507201527 | 16 | 251 | 17.7 | 29.0 | 0.00 | 0.00 | 0.00 | 24 | 1020.6 |
| 20260507200028 | 15 | 260 | 12.9 | 29.0 | 0.00 | 0.00 | 0.00 | 24 | 1021.1 |
| 20260507194531 | 15 | 282 | 9.7 | 25.7 | 0.00 | 0.03 | 0.00 | 23 | 1021.4 |
| 20260507193034 | 15 | 228 | 12.9 | 25.7 | 0.00 | 0.03 | 0.00 | 23 | 1021.4 |
| 20260507191530 | 14 | 250 | 9.7 | 25.7 | 0.00 | 0.03 | 0.00 | 22 | 1021.5 |
| 20260507190028 | 13 | 281 | 9.7 | 27.4 | 0.00 | 0.03 | 0.00 | 24 | 1021.6 |
| 20260507184528 | 13 | 243 | 20.9 | 30.6 | 0.00 | 0.03 | 0.00 | 22 | 1021.8 |
| 20260507183041 | 13 | 256 | 9.7 | 24.1 | 0.00 | 0.03 | 0.00 | 24 | 1022.0 |
| 20260507181530 | 13 | 271 | 11.3 | 24.1 | 0.00 | 0.03 | 0.00 | 22 | 1022.1 |
| 20260507180033 | 12 | 267 | 16.1 | 25.7 | 0.00 | 0.03 | 0.00 | 21 | 1022.2 |
| 20260507174530 | 12 | 228 | 12.9 | 24.1 | 0.00 | 0.08 | 0.00 | 23 | 1022.4 |
| 20260507173030 | 12 | 238 | 11.3 | 22.5 | 0.00 | 0.08 | 0.00 | 24 | 1022.5 |
| 20260507171529 | 11 | 252 | 9.7 | 22.5 | 0.00 | 0.08 | 0.00 | 24 | 1022.7 |
| 20260507170028 | 11 | 263 | 9.7 | 20.9 | 0.00 | 0.08 | 0.00 | 24 | 1022.8 |
| 20260507164531 | 10 | 178 | 6.4 | 16.1 | 0.00 | 0.10 | 0.00 | 24 | 1023.0 |
| 20260507163027 | 10 | 233 | 9.7 | 17.7 | 0.00 | 0.10 | 0.00 | 26 | 1023.2 |
| 20260507161539 | 9 | 255 | 9.7 | 16.1 | 0.00 | 0.10 | 0.00 | 26 | 1023.3 |
| 20260507160040 | 8 | 261 | 4.8 | 14.5 | 0.00 | 0.10 | 0.00 | 28 | 1023.4 |
| 20260507154531 | 8 | 216 | 6.4 | 16.1 | 0.00 | 0.10 | 0.00 | 28 | 1023.5 |
| 20260507153031 | 8 | 279 | 8.0 | 14.5 | 0.00 | 0.10 | 0.00 | 28 | 1023.5 |
| 20260507151528 | 7 | 253 | 3.2 | 11.3 | 0.00 | 0.10 | 0.00 | 27 | 1023.7 |
| 20260507150030 | 7 | 279 | 3.2 | 11.3 | 0.00 | 0.10 | 0.00 | 28 | 1023.8 |
| 20260507144534 | 7 | 275 | 3.2 | 9.7 | 0.00 | 0.10 | 0.00 | 30 | 1023.8 |
| 20260507143029 | 6 | 266 | 4.8 | 6.4 | 0.00 | 0.10 | 0.00 | 30 | 1023.8 |
| 20260507141527 | 7 | 298 | 3.2 | 6.4 | 0.00 | 0.10 | 0.00 | 27 | 1023.8 |
| 20260507140029 | 6 | 73 | 1.6 | 4.8 | 0.00 | 0.10 | 0.00 | 27 | 1023.8 |
| 20260507134528 | 5 | 25 | 4.8 | 8.0 | 0.00 | 0.10 | 0.00 | 33 | 1023.7 |
| 20260507133028 | 3 | 36 | 8.0 | 14.5 | 0.00 | 0.10 | 0.00 | 36 | 1023.5 |
| 20260507131532 | 1 | 36 | 9.7 | 14.5 | 0.00 | 0.10 | 0.00 | 40 | 1023.1 |
| 20260507130028 | 0 | 34 | 9.7 | 16.1 | 0.00 | 0.10 | 0.00 | 43 | 1023.2 |
| 20260507124545 | -2 | 34 | 9.7 | 16.1 | 0.00 | 0.10 | 0.00 | 47 | 1023.2 |
| 20260507123030 | -2 | 34 | 11.3 | 16.1 | 0.00 | 0.10 | 0.00 | 46 | 1023.2 |
| 20260507121528 | -2 | 35 | 12.9 | 17.7 | 0.00 | 0.10 | 0.00 | 48 | 1023.1 |
| 20260507120028 | -3 | 37 | 11.3 | 16.1 | 0.00 | 0.10 | 0.00 | 52 | 1022.9 |